Time;durP1;ratioP1;P1;durP2;ratioP2;P2;SDS_P1;SDS_P2;PMS_P1;PMS_P2;Temp;Humidity;BMP_temperature;BMP_pressure;BME280_temperature;BME280_humidity;BME280_pressure;Samples;Min_cycle;Max_cycle;Signal;HPM_P1;HPM_P2
2023/12/04 00:00:16;;;;;;;2.45;1.08;;;;;;;;;;5131488;27;20061;-72
2023/12/04 00:02:43;;;;;;;1.55;0.93;;;;;;;;;;5130976;27;20544;-72
2023/12/04 00:05:10;;;;;;;2.20;1.27;;;;;;;;;;5130592;27;20519;-73
2023/12/04 00:07:36;;;;;;;2.03;1.00;;;;;;;;;;5130958;27;20043;-74
2023/12/04 00:10:04;;;;;;;2.30;0.98;;;;;;;;;;5130785;27;20051;-73
2023/12/04 00:12:30;;;;;;;1.27;0.73;;;;;;;;;;5131015;27;20039;-72
2023/12/04 00:14:57;;;;;;;2.35;1.10;;;;;;;;;;5130832;27;20082;-73
2023/12/04 00:17:24;;;;;;;3.33;1.10;;;;;;;;;;5130596;27;20051;-73
2023/12/04 00:19:50;;;;;;;2.20;1.00;;;;;;;;;;5131008;27;20123;-73
2023/12/04 00:22:17;;;;;;;3.17;1.20;;;;;;;;;;5130200;27;20096;-73
2023/12/04 00:24:44;;;;;;;2.22;0.88;;;;;;;;;;5130102;27;20434;-73
2023/12/04 00:27:10;;;;;;;2.15;1.08;;;;;;;;;;5130645;27;20132;-72
2023/12/04 00:29:40;;;;;;;2.55;1.05;;;;;;;;;;5130690;27;20050;-74
2023/12/04 00:32:06;;;;;;;1.98;1.15;;;;;;;;;;5130625;27;20104;-72
2023/12/04 00:34:36;;;;;;;1.50;0.90;;;;;;;;;;5130293;27;20047;-72
2023/12/04 00:37:05;;;;;;;2.67;1.10;;;;;;;;;;5130600;27;20118;-72
2023/12/04 00:39:32;;;;;;;2.38;1.10;;;;;;;;;;5130128;27;20058;-72
2023/12/04 00:41:59;;;;;;;2.55;1.10;;;;;;;;;;5130129;27;20098;-72
2023/12/04 00:44:25;;;;;;;2.00;1.08;;;;;;;;;;5130270;27;20053;-71
2023/12/04 00:46:52;;;;;;;1.33;0.82;;;;;;;;;;5130079;27;20635;-71
2023/12/04 00:49:19;;;;;;;1.60;1.00;;;;;;;;;;5130348;27;20054;-72
2023/12/04 00:51:46;;;;;;;1.73;0.93;;;;;;;;;;5130504;27;20066;-74
2023/12/04 00:54:13;;;;;;;1.73;1.10;;;;;;;;;;5130052;27;20050;-73
2023/12/04 00:56:39;;;;;;;2.50;1.10;;;;;;;;;;5130012;27;20130;-73
2023/12/04 00:59:11;;;;;;;2.28;1.08;;;;;;;;;;5129959;27;20043;-73
2023/12/04 01:01:38;;;;;;;2.08;1.00;;;;;;;;;;5129864;27;20044;-73
2023/12/04 01:04:07;;;;;;;2.75;0.93;;;;;;;;;;5129836;27;20518;-72
2023/12/04 01:06:35;;;;;;;3.28;1.20;;;;;;;;;;5130203;27;20153;-71
2023/12/04 01:09:02;;;;;;;2.70;1.35;;;;;;;;;;5111592;27;20205;-72
2023/12/04 01:11:28;;;;;;;2.78;1.17;;;;;;;;;;5130169;27;20074;-72
2023/12/04 01:13:55;;;;;;;2.83;1.17;;;;;;;;;;5111361;27;20246;-72
2023/12/04 01:16:22;;;;;;;1.55;0.93;;;;;;;;;;5129023;27;20083;-73
2023/12/04 01:18:49;;;;;;;2.30;1.00;;;;;;;;;;5129402;27;20523;-72
2023/12/04 01:21:16;;;;;;;1.60;0.90;;;;;;;;;;5107840;28;20781;-73
2023/12/04 01:23:42;;;;;;;4.22;1.25;;;;;;;;;;5108693;28;20510;-73
2023/12/04 01:26:10;;;;;;;3.20;1.10;;;;;;;;;;5109112;28;20531;-73
2023/12/04 01:28:37;;;;;;;1.77;0.90;;;;;;;;;;5107438;28;20043;-73
2023/12/04 01:31:04;;;;;;;1.75;1.00;;;;;;;;;;5108968;28;20078;-72
2023/12/04 01:33:31;;;;;;;1.88;1.00;;;;;;;;;;5108872;28;20052;-73
2023/12/04 01:35:57;;;;;;;3.20;1.20;;;;;;;;;;5109072;28;20067;-72
2023/12/04 01:38:24;;;;;;;3.30;1.20;;;;;;;;;;5108780;28;20093;-72
2023/12/04 01:40:51;;;;;;;2.00;1.00;;;;;;;;;;5107977;28;20610;-73
2023/12/04 01:43:18;;;;;;;1.75;0.95;;;;;;;;;;5108713;28;20510;-72
2023/12/04 01:45:45;;;;;;;2.65;1.20;;;;;;;;;;5108908;28;20435;-73
2023/12/04 01:48:15;;;;;;;2.08;1.20;;;;;;;;;;5108902;28;20667;-73
2023/12/04 01:50:45;;;;;;;1.80;1.00;;;;;;;;;;5108759;28;20487;-73
2023/12/04 01:53:15;;;;;;;3.30;1.20;;;;;;;;;;5108635;28;20495;-72
2023/12/04 01:55:46;;;;;;;2.00;1.00;;;;;;;;;;5108617;28;20077;-73
2023/12/04 01:58:13;;;;;;;;;;;;;;;;;;5109426;28;20078;-73
2023/12/04 02:00:39;;;;;;;1.70;1.00;;;;;;;;;;5109073;28;19924;-72
2023/12/04 02:03:08;;;;;;;2.47;1.20;;;;;;;;;;5108744;28;20130;-73
2023/12/04 02:05:35;;;;;;;2.45;1.00;;;;;;;;;;5108859;28;20054;-72
2023/12/04 02:08:03;;;;;;;1.02;0.73;;;;;;;;;;5108668;28;20044;-73
2023/12/04 02:10:30;;;;;;;1.92;1.10;;;;;;;;;;5108044;28;20051;-73
2023/12/04 02:12:56;;;;;;;2.40;1.20;;;;;;;;;;5108451;28;20047;-72
2023/12/04 02:15:23;;;;;;;1.63;1.00;;;;;;;;;;5108590;28;20092;-73
2023/12/04 02:17:50;;;;;;;2.83;1.23;;;;;;;;;;5108768;28;20048;-73
2023/12/04 02:20:17;;;;;;;2.28;1.15;;;;;;;;;;5108952;28;20095;-73
2023/12/04 02:22:47;;;;;;;1.70;0.90;;;;;;;;;;5125652;28;20051;-72
2023/12/04 02:25:18;;;;;;;3.10;1.30;;;;;;;;;;5128315;27;20474;-73
2023/12/04 02:28:04;;;;;;;3.83;1.50;;;;;;;;;;5130883;27;20586;-72
2023/12/04 02:30:36;;;;;;;2.58;1.23;;;;;;;;;;5132977;27;20054;-72
2023/12/04 02:33:05;;;;;;;3.08;1.10;;;;;;;;;;5132897;27;20713;-73
2023/12/04 02:35:33;;;;;;;3.67;1.20;;;;;;;;;;5132617;27;20093;-73
2023/12/04 02:38:02;;;;;;;2.03;1.20;;;;;;;;;;5133016;27;20051;-72
2023/12/04 02:40:29;;;;;;;2.17;0.98;;;;;;;;;;5132477;27;20504;-73
2023/12/04 02:42:56;;;;;;;1.98;1.10;;;;;;;;;;5132950;27;20075;-73
2023/12/04 02:45:22;;;;;;;4.05;1.20;;;;;;;;;;5132262;27;20047;-73
2023/12/04 02:47:49;;;;;;;2.58;1.35;;;;;;;;;;5132638;27;20035;-73
2023/12/04 02:50:16;;;;;;;4.95;1.60;;;;;;;;;;5132289;27;20143;-73
2023/12/04 02:52:43;;;;;;;2.42;1.20;;;;;;;;;;5114585;27;20081;-72
2023/12/04 02:55:09;;;;;;;2.00;1.15;;;;;;;;;;5132040;27;20051;-73
2023/12/04 02:57:36;;;;;;;2.35;1.35;;;;;;;;;;5132645;27;20131;-72
2023/12/04 03:00:04;;;;;;;2.08;1.15;;;;;;;;;;5132510;27;20137;-72
2023/12/04 03:02:31;;;;;;;2.15;1.35;;;;;;;;;;5132207;27;20044;-72
2023/12/04 03:04:58;;;;;;;2.58;1.20;;;;;;;;;;5132283;27;20050;-72
2023/12/04 03:07:26;;;;;;;2.78;1.25;;;;;;;;;;5132514;27;20127;-72
2023/12/04 03:09:53;;;;;;;2.67;1.30;;;;;;;;;;5131604;27;20053;-72
2023/12/04 03:12:20;;;;;;;3.28;1.30;;;;;;;;;;5132319;27;20510;-72
2023/12/04 03:14:49;;;;;;;2.95;1.20;;;;;;;;;;5132075;27;20107;-72
2023/12/04 03:17:16;;;;;;;2.78;1.33;;;;;;;;;;5132017;27;20066;-72
2023/12/04 03:19:45;;;;;;;3.63;1.38;;;;;;;;;;5113797;27;20434;-72
2023/12/04 03:22:12;;;;;;;4.93;1.50;;;;;;;;;;5131780;27;20057;-71
2023/12/04 03:24:39;;;;;;;2.60;1.52;;;;;;;;;;5113407;27;20051;-71
2023/12/04 03:27:06;;;;;;;4.60;1.52;;;;;;;;;;5131827;27;20663;-72
2023/12/04 03:29:32;;;;;;;2.67;1.40;;;;;;;;;;5131529;27;20686;-71
2023/12/04 03:31:59;;;;;;;2.60;1.30;;;;;;;;;;5131944;27;20128;-71
2023/12/04 03:34:26;;;;;;;2.50;1.55;;;;;;;;;;5131879;27;20039;-72
2023/12/04 03:36:52;;;;;;;3.78;1.30;;;;;;;;;;5131666;27;20050;-71
2023/12/04 03:39:19;;;;;;;2.15;1.30;;;;;;;;;;5130642;27;20047;-72
2023/12/04 03:41:47;;;;;;;4.65;1.52;;;;;;;;;;5131594;27;20051;-72
2023/12/04 03:44:14;;;;;;;2.40;1.35;;;;;;;;;;5131608;27;20058;-71
2023/12/04 03:46:41;;;;;;;3.00;1.50;;;;;;;;;;5131369;27;20495;-72
2023/12/04 03:49:07;;;;;;;4.25;1.20;;;;;;;;;;5131529;27;20087;-72
2023/12/04 03:51:34;;;;;;;1.60;0.75;;;;;;;;;;5131210;27;20126;-71
2023/12/04 03:54:01;;;;;;;1.77;1.00;;;;;;;;;;5130773;27;20054;-72
2023/12/04 03:56:27;;;;;;;1.95;1.10;;;;;;;;;;5130928;27;20418;-71
2023/12/04 03:58:54;;;;;;;3.63;1.38;;;;;;;;;;5131165;27;20043;-71
2023/12/04 04:01:21;;;;;;;3.15;1.40;;;;;;;;;;5131392;27;20050;-72
2023/12/04 04:03:47;;;;;;;2.20;1.33;;;;;;;;;;5131160;27;20467;-72
2023/12/04 04:06:14;;;;;;;2.92;1.38;;;;;;;;;;5131110;27;20043;-71
2023/12/04 04:08:41;;;;;;;4.13;1.15;;;;;;;;;;5130687;27;20047;-71
2023/12/04 04:11:07;;;;;;;2.30;1.20;;;;;;;;;;5130925;27;20077;-71
2023/12/04 04:13:34;;;;;;;2.65;0.95;;;;;;;;;;5130960;27;20054;-72
2023/12/04 04:16:01;;;;;;;2.72;1.40;;;;;;;;;;5130768;27;20042;-71
2023/12/04 04:18:28;;;;;;;3.58;1.05;;;;;;;;;;5130942;27;20050;-71
2023/12/04 04:20:55;;;;;;;2.15;1.20;;;;;;;;;;5130909;27;20054;-72
2023/12/04 04:23:21;;;;;;;1.90;1.27;;;;;;;;;;5131017;27;20043;-72
2023/12/04 04:25:48;;;;;;;2.13;1.10;;;;;;;;;;5130431;27;20047;-73
2023/12/04 04:28:15;;;;;;;1.92;1.10;;;;;;;;;;5130646;27;20450;-73
2023/12/04 04:30:41;;;;;;;1.65;1.00;;;;;;;;;;5130170;27;20430;-73
2023/12/04 04:33:08;;;;;;;3.17;1.10;;;;;;;;;;5130532;27;20043;-72
2023/12/04 04:35:35;;;;;;;2.75;1.40;;;;;;;;;;5130260;27;20071;-73
2023/12/04 04:38:01;;;;;;;2.05;1.38;;;;;;;;;;5130826;27;20046;-72
2023/12/04 04:40:28;;;;;;;6.60;1.40;;;;;;;;;;5129843;27;20525;-72
2023/12/04 04:42:55;;;;;;;1.85;1.20;;;;;;;;;;5130749;27;20040;-73
2023/12/04 04:45:25;;;;;;;1.75;1.00;;;;;;;;;;5120893;27;20108;-73
2023/12/04 04:47:54;;;;;;;1.92;1.23;;;;;;;;;;5118954;27;20515;-72
2023/12/04 04:50:21;;;;;;;3.78;1.33;;;;;;;;;;5119567;27;20045;-72
2023/12/04 04:52:50;;;;;;;2.70;1.25;;;;;;;;;;5119117;27;20465;-72
2023/12/04 04:55:17;;;;;;;2.97;1.40;;;;;;;;;;5099715;27;20055;-73
2023/12/04 04:58:03;;;;;;;4.75;2.10;;;;;;;;;;5118502;27;20532;-73
2023/12/04 05:00:30;;;;;;;4.88;1.40;;;;;;;;;;5118981;27;20467;-72
2023/12/04 05:02:58;;;;;;;3.40;1.30;;;;;;;;;;5120365;27;20061;-72
2023/12/04 05:05:24;;;;;;;3.78;1.65;;;;;;;;;;5118092;27;20454;-73
2023/12/04 05:07:51;;;;;;;3.88;1.55;;;;;;;;;;5118970;27;20039;-72
2023/12/04 05:10:18;;;;;;;2.92;1.42;;;;;;;;;;5119442;27;20625;-73
2023/12/04 05:12:44;;;;;;;3.80;1.40;;;;;;;;;;5118412;27;20064;-71
2023/12/04 05:15:11;;;;;;;2.15;1.20;;;;;;;;;;5113482;27;20074;-72
2023/12/04 05:17:38;;;;;;;3.30;1.38;;;;;;;;;;5109098;28;20051;-72
2023/12/04 05:20:05;;;;;;;4.38;1.65;;;;;;;;;;5109073;28;20047;-72
2023/12/04 05:22:32;;;;;;;2.72;1.38;;;;;;;;;;5109071;28;20139;-73
2023/12/04 05:24:58;;;;;;;4.03;1.58;;;;;;;;;;5108916;28;20039;-73
2023/12/04 05:27:25;;;;;;;2.30;1.40;;;;;;;;;;5108922;28;20044;-72
2023/12/04 05:29:52;;;;;;;3.97;1.58;;;;;;;;;;5091179;28;20048;-73
2023/12/04 05:32:19;;;;;;;3.80;1.80;;;;;;;;;;5108951;28;20457;-73
2023/12/04 05:34:45;;;;;;;3.60;1.30;;;;;;;;;;5109303;28;20051;-72
2023/12/04 05:37:12;;;;;;;2.92;1.48;;;;;;;;;;5109126;28;20048;-72
2023/12/04 05:39:39;;;;;;;3.75;1.48;;;;;;;;;;5108772;28;20044;-73
2023/12/04 05:42:06;;;;;;;4.85;1.70;;;;;;;;;;5108593;28;20079;-72
2023/12/04 05:44:33;;;;;;;5.85;1.65;;;;;;;;;;5109082;28;20071;-72
2023/12/04 05:47:00;;;;;;;4.38;1.70;;;;;;;;;;5108943;28;20050;-72
2023/12/04 05:49:29;;;;;;;3.40;1.50;;;;;;;;;;5109102;28;20066;-73
2023/12/04 05:51:59;;;;;;;3.00;1.52;;;;;;;;;;5108988;28;20043;-73
2023/12/04 05:54:28;;;;;;;2.58;1.58;;;;;;;;;;5108602;28;20130;-73
2023/12/04 05:56:55;;;;;;;2.10;1.08;;;;;;;;;;5108372;28;20458;-72
2023/12/04 05:59:24;;;;;;;4.57;1.48;;;;;;;;;;5091146;28;20127;-73
2023/12/04 06:01:51;;;;;;;2.80;1.45;;;;;;;;;;5109074;28;20057;-72
2023/12/04 06:04:17;;;;;;;4.25;1.70;;;;;;;;;;5113190;28;20050;-72
2023/12/04 06:06:44;;;;;;;5.07;1.70;;;;;;;;;;5112900;28;20063;-73
2023/12/04 06:09:11;;;;;;;4.82;1.58;;;;;;;;;;5112670;28;20130;-73
2023/12/04 06:11:37;;;;;;;5.35;2.60;;;;;;;;;;5112623;28;20048;-72
2023/12/04 06:14:04;;;;;;;4.60;2.30;;;;;;;;;;5112972;28;20058;-73
2023/12/04 06:16:31;;;;;;;7.22;2.10;;;;;;;;;;5112689;28;20213;-72
2023/12/04 06:19:00;;;;;;;6.70;2.17;;;;;;;;;;5112432;28;20048;-73
2023/12/04 06:21:27;;;;;;;3.28;1.70;;;;;;;;;;5112198;28;20117;-73
2023/12/04 06:24:01;;;;;;;5.20;1.63;;;;;;;;;;5112276;28;20104;-73
2023/12/04 06:26:31;;;;;;;5.75;1.80;;;;;;;;;;5112477;28;20043;-72
2023/12/04 06:29:01;;;;;;;3.58;1.60;;;;;;;;;;5094268;28;20051;-73
2023/12/04 06:31:31;;;;;;;4.37;1.73;;;;;;;;;;5112313;28;20051;-73
2023/12/04 06:34:01;;;;;;;3.30;1.40;;;;;;;;;;5112559;28;20317;-72
2023/12/04 06:36:35;;;;;;;3.47;1.20;;;;;;;;;;5111796;28;20628;-73
2023/12/04 06:39:04;;;;;;;6.63;1.92;;;;;;;;;;5112151;28;20047;-73
2023/12/04 06:41:31;;;;;;;3.10;1.58;;;;;;;;;;5111989;28;20044;-72
2023/12/04 06:43:58;;;;;;;4.35;1.60;;;;;;;;;;5112220;28;20044;-73
2023/12/04 06:46:28;;;;;;;9.93;1.67;;;;;;;;;;5111696;28;20043;-73
2023/12/04 06:49:02;;;;;;;5.97;1.52;;;;;;;;;;5094291;28;20523;-72
2023/12/04 06:51:32;;;;;;;3.45;1.92;;;;;;;;;;5111755;28;20156;-74
2023/12/04 06:54:02;;;;;;;4.80;1.92;;;;;;;;;;5111429;28;20411;-73
2023/12/04 06:56:28;;;;;;;3.40;1.27;;;;;;;;;;5111688;28;20090;-72
2023/12/04 06:58:55;;;;;;;3.08;1.50;;;;;;;;;;5112098;28;20051;-72
2023/12/04 07:01:22;;;;;;;4.60;2.00;;;;;;;;;;5111935;28;20517;-72
2023/12/04 07:03:49;;;;;;;3.47;1.80;;;;;;;;;;5111733;28;20126;-71
2023/12/04 07:06:16;;;;;;;4.80;1.45;;;;;;;;;;5111616;28;20123;-73
2023/12/04 07:08:44;;;;;;;2.40;1.40;;;;;;;;;;5111040;28;20139;-71
2023/12/04 07:11:14;;;;;;;3.70;1.63;;;;;;;;;;5111274;28;20047;-72
2023/12/04 07:13:42;;;;;;;4.35;1.48;;;;;;;;;;5110770;28;20170;-71
2023/12/04 07:16:09;;;;;;;5.22;1.48;;;;;;;;;;5111437;28;20070;-72
2023/12/04 07:18:35;;;;;;;4.40;1.63;;;;;;;;;;5111336;28;20050;-71
2023/12/04 07:21:03;;;;;;;4.47;1.70;;;;;;;;;;5111127;28;20560;-72
2023/12/04 07:23:30;;;;;;;3.47;1.85;;;;;;;;;;5111279;28;20050;-72
2023/12/04 07:25:57;;;;;;;2.97;1.63;;;;;;;;;;5111283;28;20046;-71
2023/12/04 07:28:24;;;;;;;2.55;1.50;;;;;;;;;;5110975;28;20048;-71
2023/12/04 07:30:51;;;;;;;3.90;1.45;;;;;;;;;;5111173;28;20055;-71
2023/12/04 07:33:18;;;;;;;3.20;1.33;;;;;;;;;;5111351;28;20043;-72
2023/12/04 07:35:44;;;;;;;4.15;1.92;;;;;;;;;;5111344;28;20047;-72
2023/12/04 07:38:11;;;;;;;6.75;1.95;;;;;;;;;;5110944;28;20431;-73
2023/12/04 07:40:38;;;;;;;5.20;1.70;;;;;;;;;;5092381;28;20449;-72
2023/12/04 07:43:04;;;;;;;4.70;1.60;;;;;;;;;;5111056;28;20091;-72
2023/12/04 07:45:31;;;;;;;3.28;1.63;;;;;;;;;;5110804;28;20047;-72
2023/12/04 07:47:58;;;;;;;5.05;1.70;;;;;;;;;;5110466;28;20126;-72
2023/12/04 07:50:25;;;;;;;3.70;1.58;;;;;;;;;;5111079;28;20040;-73
2023/12/04 07:52:51;;;;;;;4.88;1.95;;;;;;;;;;5110784;28;20044;-73
2023/12/04 07:55:18;;;;;;;6.65;1.90;;;;;;;;;;5110664;28;20039;-72
2023/12/04 07:57:45;;;;;;;4.10;1.58;;;;;;;;;;5110681;28;20047;-73
2023/12/04 08:00:12;;;;;;;3.67;1.48;;;;;;;;;;5110637;28;20133;-73
2023/12/04 08:02:40;;;;;;;2.67;1.40;;;;;;;;;;5110365;28;20071;-73
2023/12/04 08:05:06;;;;;;;2.83;1.60;;;;;;;;;;5110686;28;20047;-73
2023/12/04 08:07:36;;;;;;;7.47;1.95;;;;;;;;;;5110188;28;20406;-72
2023/12/04 08:10:02;;;;;;;2.80;1.75;;;;;;;;;;5110282;28;20051;-72
2023/12/04 08:12:29;;;;;;;4.63;2.00;;;;;;;;;;5110175;28;20465;-73
2023/12/04 08:14:56;;;;;;;4.70;1.80;;;;;;;;;;5110650;28;20040;-74
2023/12/04 08:17:24;;;;;;;4.07;1.70;;;;;;;;;;5109994;28;20044;-73
2023/12/04 08:19:50;;;;;;;5.20;1.90;;;;;;;;;;5110397;28;20050;-73
2023/12/04 08:22:19;;;;;;;3.33;1.52;;;;;;;;;;5109900;28;20059;-72
2023/12/04 08:24:46;;;;;;;2.45;1.48;;;;;;;;;;5109617;28;20403;-72
2023/12/04 08:27:13;;;;;;;3.53;1.33;;;;;;;;;;5110000;28;20127;-72
2023/12/04 08:29:40;;;;;;;4.35;2.28;;;;;;;;;;5110103;28;20453;-73
2023/12/04 08:32:07;;;;;;;8.95;4.70;;;;;;;;;;5109861;28;20067;-72
2023/12/04 08:34:34;;;;;;;3.60;1.85;;;;;;;;;;5110191;28;20126;-72
2023/12/04 08:37:01;;;;;;;3.45;1.88;;;;;;;;;;5109942;28;20130;-72
2023/12/04 08:39:28;;;;;;;4.15;1.90;;;;;;;;;;5109332;28;20048;-72
2023/12/04 08:41:55;;;;;;;3.47;1.60;;;;;;;;;;5109649;28;20048;-72
2023/12/04 08:44:30;;;;;;;4.75;1.75;;;;;;;;;;5109779;28;20097;-72
2023/12/04 08:46:57;;;;;;;4.03;1.65;;;;;;;;;;5110049;28;20040;-72
2023/12/04 08:49:24;;;;;;;3.95;1.88;;;;;;;;;;5109873;28;20051;-73
2023/12/04 08:52:05;;;;;;;4.85;2.00;;;;;;;;;;5109588;28;20056;-73
2023/12/04 08:54:32;;;;;;;5.93;2.03;;;;;;;;;;5109296;28;20043;-73
2023/12/04 08:56:59;;;;;;;5.00;1.80;;;;;;;;;;5109468;28;20040;-72
2023/12/04 08:59:26;;;;;;;5.97;1.58;;;;;;;;;;5109637;28;20046;-73
2023/12/04 09:01:54;;;;;;;4.63;1.63;;;;;;;;;;5110039;28;20047;-72
2023/12/04 09:04:21;;;;;;;3.40;1.67;;;;;;;;;;5109485;28;20044;-72
2023/12/04 09:06:47;;;;;;;2.75;1.55;;;;;;;;;;5109627;28;20043;-72
2023/12/04 09:09:17;;;;;;;4.88;2.10;;;;;;;;;;5108744;28;20051;-72
2023/12/04 09:11:44;;;;;;;4.00;1.90;;;;;;;;;;5109419;28;20056;-73
2023/12/04 09:14:11;;;;;;;2.92;1.50;;;;;;;;;;5108903;28;20043;-73
2023/12/04 09:16:37;;;;;;;3.72;1.67;;;;;;;;;;5109670;28;20131;-74
2023/12/04 09:19:04;;;;;;;3.72;2.22;;;;;;;;;;5109178;28;20203;-73
2023/12/04 09:21:31;;;;;;;5.70;1.85;;;;;;;;;;5109094;28;20572;-72
2023/12/04 09:23:58;;;;;;;6.45;1.77;;;;;;;;;;5108805;28;20140;-72
2023/12/04 09:26:25;;;;;;;4.15;1.83;;;;;;;;;;5109232;28;20043;-72
2023/12/04 09:28:51;;;;;;;3.63;1.50;;;;;;;;;;5108817;28;20052;-72
2023/12/04 09:31:19;;;;;;;8.75;1.90;;;;;;;;;;5108961;28;20541;-73
2023/12/04 09:33:47;;;;;;;7.30;1.73;;;;;;;;;;5108633;28;20051;-72
2023/12/04 09:36:14;;;;;;;3.92;1.85;;;;;;;;;;5108932;28;20492;-72
2023/12/04 09:38:41;;;;;;;4.55;1.90;;;;;;;;;;5108076;28;20147;-73
2023/12/04 09:41:12;;;;;;;4.70;1.50;;;;;;;;;;5109214;28;20043;-71
2023/12/04 09:43:42;;;;;;;5.05;1.70;;;;;;;;;;5108782;28;20044;-72
2023/12/04 09:46:11;;;;;;;5.00;1.67;;;;;;;;;;5108785;28;20466;-73
2023/12/04 09:48:41;;;;;;;4.45;1.50;;;;;;;;;;5108276;28;20134;-72
2023/12/04 09:51:12;;;;;;;4.40;1.40;;;;;;;;;;5108831;28;20052;-72
2023/12/04 09:53:40;;;;;;;5.32;1.60;;;;;;;;;;5108558;28;20052;-72
2023/12/04 09:56:09;;;;;;;3.25;1.20;;;;;;;;;;5108668;28;20055;-72
2023/12/04 09:58:40;;;;;;;5.05;1.55;;;;;;;;;;5108443;28;20108;-72
2023/12/04 10:01:06;;;;;;;;;;;;;;;;;;5109223;28;20039;-72
2023/12/04 10:03:34;;;;;;;4.53;1.58;;;;;;;;;;5108361;28;20010;-72
2023/12/04 10:06:02;;;;;;;5.03;1.73;;;;;;;;;;5108534;28;20043;-72
2023/12/04 10:08:29;;;;;;;3.83;1.52;;;;;;;;;;5089861;28;20043;-72
2023/12/04 10:10:55;;;;;;;5.45;1.73;;;;;;;;;;5108854;28;20055;-71
2023/12/04 10:13:23;;;;;;;6.75;2.88;;;;;;;;;;5090375;28;20492;-72
2023/12/04 10:16:09;;;;;;;3.60;1.60;;;;;;;;;;5108884;28;20067;-72
2023/12/04 10:18:36;;;;;;;4.43;1.33;;;;;;;;;;5108071;28;20700;-72
2023/12/04 10:21:07;;;;;;;3.40;1.30;;;;;;;;;;5108423;28;20147;-72
2023/12/04 10:23:43;;;;;;;4.18;1.33;;;;;;;;;;5107700;28;20552;-72
2023/12/04 10:26:15;;;;;;;3.90;1.15;;;;;;;;;;5108346;28;20051;-72
2023/12/04 10:29:00;;;;;;;5.30;1.42;;;;;;;;;;5108053;28;20563;-72
2023/12/04 10:31:26;;;;;;;7.25;1.63;;;;;;;;;;5108483;28;20051;-72
2023/12/04 10:33:54;;;;;;;4.60;1.17;;;;;;;;;;5108117;28;20051;-72
2023/12/04 10:36:21;;;;;;;2.75;1.13;;;;;;;;;;5108595;28;20204;-72
2023/12/04 10:38:59;;;;;;;8.25;1.38;;;;;;;;;;5107646;28;20043;-72
2023/12/04 10:41:26;;;;;;;1.95;0.88;;;;;;;;;;5108112;28;20058;-73
2023/12/04 10:43:56;;;;;;;2.70;1.40;;;;;;;;;;5108323;28;20054;-72
2023/12/04 10:46:35;;;;;;;5.28;1.30;;;;;;;;;;5115060;28;20449;-73
2023/12/04 10:49:04;;;;;;;3.92;1.45;;;;;;;;;;5118820;27;20058;-72
2023/12/04 10:51:34;;;;;;;4.63;1.27;;;;;;;;;;5121867;27;20043;-71
2023/12/04 10:54:01;;;;;;;2.85;1.10;;;;;;;;;;5121921;27;20044;-72
2023/12/04 10:56:38;;;;;;;2.20;1.05;;;;;;;;;;5120646;27;20042;-70
2023/12/04 10:59:12;;;;;;;6.45;1.20;;;;;;;;;;5120142;27;20055;-70
2023/12/04 11:01:42;;;;;;;3.42;1.00;;;;;;;;;;5120773;27;20039;-73
2023/12/04 11:04:14;;;;;;;2.00;0.98;;;;;;;;;;5120592;27;20047;-72
2023/12/04 11:06:42;;;;;;;2.58;1.17;;;;;;;;;;5120642;27;20035;-73
2023/12/04 11:09:10;;;;;;;4.05;1.10;;;;;;;;;;5119975;27;20043;-70
2023/12/04 11:11:42;;;;;;;3.22;1.08;;;;;;;;;;5120834;27;20053;-71
2023/12/04 11:14:18;;;;;;;4.35;1.15;;;;;;;;;;5120430;27;20566;-71
2023/12/04 11:16:47;;;;;;;2.13;1.00;;;;;;;;;;5128572;27;20043;-73
2023/12/04 11:19:38;;;;;;;4.47;1.10;;;;;;;;;;5131517;27;20067;-71
2023/12/04 11:22:07;;;;;;;3.40;1.10;;;;;;;;;;5131464;27;20487;-72
2023/12/04 11:24:35;;;;;;;3.78;1.00;;;;;;;;;;5134049;27;20502;-72
2023/12/04 11:27:03;;;;;;;2.75;0.98;;;;;;;;;;5131590;27;20514;-73
2023/12/04 11:29:31;;;;;;;4.55;1.10;;;;;;;;;;5110629;28;20036;-72
2023/12/04 11:31:58;;;;;;;2.13;0.73;;;;;;;;;;5110962;28;20032;-71
2023/12/04 11:34:25;;;;;;;1.38;0.80;;;;;;;;;;5109036;28;20044;-73
2023/12/04 11:36:52;;;;;;;3.70;1.73;;;;;;;;;;5120637;27;20116;-72
2023/12/04 11:39:19;;;;;;;3.63;1.10;;;;;;;;;;5119659;27;20047;-71
2023/12/04 11:41:49;;;;;;;1.98;0.90;;;;;;;;;;5121856;27;20039;-72
2023/12/04 11:44:18;;;;;;;3.47;1.40;;;;;;;;;;5120799;27;20043;-72
2023/12/04 11:46:57;;;;;;;1.60;0.80;;;;;;;;;;5119598;27;20088;-72
2023/12/04 11:49:31;;;;;;;3.40;0.90;;;;;;;;;;5118962;27;20047;-72
2023/12/04 11:52:04;;;;;;;3.90;1.10;;;;;;;;;;5103159;27;20039;-72
2023/12/04 11:54:58;;;;;;;3.25;0.90;;;;;;;;;;5119217;27;20043;-72
2023/12/04 11:57:25;;;;;;;1.85;0.85;;;;;;;;;;5121476;27;20047;-72
2023/12/04 12:00:16;;;;;;;2.72;0.90;;;;;;;;;;5109969;28;20044;-73
2023/12/04 12:02:52;;;;;;;1.52;0.77;;;;;;;;;;5110625;28;20138;-72
2023/12/04 12:05:40;;;;;;;3.78;1.00;;;;;;;;;;5110431;28;20051;-73
2023/12/04 12:08:08;;;;;;;4.10;1.27;;;;;;;;;;5110750;28;20122;-74
2023/12/04 12:10:35;;;;;;;3.00;0.90;;;;;;;;;;5109292;28;20142;-74
2023/12/04 12:13:02;;;;;;;4.30;1.00;;;;;;;;;;5116858;27;20043;-73
2023/12/04 12:15:29;;;;;;;2.90;1.02;;;;;;;;;;5119354;27;20035;-74
2023/12/04 12:17:56;;;;;;;2.80;0.77;;;;;;;;;;5121236;27;20043;-74
2023/12/04 12:20:23;;;;;;;3.83;0.80;;;;;;;;;;5119795;27;20044;-74
2023/12/04 12:22:50;;;;;;;2.03;0.98;;;;;;;;;;5118998;27;20137;-74
2023/12/04 12:25:18;;;;;;;2.17;0.95;;;;;;;;;;5118446;27;20039;-70
2023/12/04 12:27:45;;;;;;;3.95;1.05;;;;;;;;;;5119323;27;20074;-73
2023/12/04 12:30:12;;;;;;;2.63;1.00;;;;;;;;;;5120747;27;20079;-73
2023/12/04 12:32:39;;;;;;;3.50;1.02;;;;;;;;;;5119145;27;20131;-73
2023/12/04 12:35:09;;;;;;;3.38;0.90;;;;;;;;;;5119387;27;20082;-73
2023/12/04 12:37:36;;;;;;;3.92;1.10;;;;;;;;;;5102482;27;20414;-73
2023/12/04 12:40:04;;;;;;;1.98;1.10;;;;;;;;;;5118854;27;20055;-73
2023/12/04 12:42:33;;;;;;;4.22;1.40;;;;;;;;;;5115764;27;20411;-73
2023/12/04 12:45:02;;;;;;;2.40;0.98;;;;;;;;;;5109697;28;20051;-72
2023/12/04 12:47:30;;;;;;;1.90;0.90;;;;;;;;;;5109804;28;20468;-73
2023/12/04 12:49:56;;;;;;;2.20;1.00;;;;;;;;;;5109672;28;20047;-72
2023/12/04 12:52:23;;;;;;;2.13;1.13;;;;;;;;;;5109836;28;20139;-72
2023/12/04 12:54:51;;;;;;;4.57;1.52;;;;;;;;;;5109247;28;20507;-72
2023/12/04 12:57:18;;;;;;;1.90;0.90;;;;;;;;;;5109937;28;20040;-72
2023/12/04 12:59:45;;;;;;;3.88;1.08;;;;;;;;;;5109694;28;20040;-73
2023/12/04 13:02:11;;;;;;;4.15;1.30;;;;;;;;;;5109534;28;20036;-72
2023/12/04 13:04:41;;;;;;;2.90;1.33;;;;;;;;;;5109690;28;20123;-73
2023/12/04 13:07:08;;;;;;;4.20;1.20;;;;;;;;;;5109552;28;20076;-72
2023/12/04 13:09:36;;;;;;;5.18;1.00;;;;;;;;;;5109007;28;20496;-73
2023/12/04 13:12:04;;;;;;;2.25;1.00;;;;;;;;;;5108187;28;20048;-73
2023/12/04 13:14:31;;;;;;;3.67;1.13;;;;;;;;;;5109659;28;20431;-72
2023/12/04 13:16:58;;;;;;;3.25;1.10;;;;;;;;;;5109270;28;20055;-73
2023/12/04 13:19:25;;;;;;;4.72;1.35;;;;;;;;;;5108773;28;20047;-74
2023/12/04 13:21:53;;;;;;;3.28;1.10;;;;;;;;;;5108412;28;20090;-72
2023/12/04 13:24:20;;;;;;;4.25;1.00;;;;;;;;;;5108608;28;20044;-72
2023/12/04 13:26:47;;;;;;;2.60;1.00;;;;;;;;;;5108965;28;20109;-73
2023/12/04 13:29:18;;;;;;;3.38;1.35;;;;;;;;;;5109229;28;20058;-74
2023/12/04 13:31:49;;;;;;;4.43;1.20;;;;;;;;;;5108676;28;20083;-73
2023/12/04 13:34:17;;;;;;;1.75;0.93;;;;;;;;;;5108982;28;20138;-73
2023/12/04 13:36:47;;;;;;;6.07;1.38;;;;;;;;;;5108697;28;20116;-73
2023/12/04 13:39:16;;;;;;;1.65;0.80;;;;;;;;;;5108670;28;20052;-73
2023/12/04 13:44:52;;;;;;;1.90;0.90;;;;;;;;;;5025478;28;20494;-73
2023/12/04 13:47:18;;;;;;;2.35;0.93;;;;;;;;;;5025337;28;20052;-73
2023/12/04 13:49:46;;;;;;;3.05;0.90;;;;;;;;;;5064512;28;20613;-74
2023/12/04 13:52:13;;;;;;;2.80;0.95;;;;;;;;;;5108838;28;20043;-73
2023/12/04 13:54:49;;;;;;;2.83;1.00;;;;;;;;;;5108352;28;20151;-73
2023/12/04 14:00:09;;;;;;;3.67;1.10;;;;;;;;;;5077057;28;20052;-73
2023/12/04 14:02:37;;;;;;;2.35;1.00;;;;;;;;;;5108457;28;20055;-73
2023/12/04 14:05:04;;;;;;;1.70;0.80;;;;;;;;;;5108601;28;20050;-73
2023/12/04 14:07:31;;;;;;;5.18;1.08;;;;;;;;;;5108492;28;20110;-72
2023/12/04 14:09:58;;;;;;;4.25;1.10;;;;;;;;;;5108066;28;20475;-73
2023/12/04 14:12:26;;;;;;;3.80;1.33;;;;;;;;;;5108079;28;20714;-74
2023/12/04 14:14:57;;;;;;;4.13;1.25;;;;;;;;;;5108751;28;20039;-73
2023/12/04 14:17:24;;;;;;;2.60;1.27;;;;;;;;;;5108494;28;20055;-73
2023/12/04 14:19:51;;;;;;;1.83;0.93;;;;;;;;;;5108248;28;20058;-73
2023/12/04 14:22:17;;;;;;;2.53;0.98;;;;;;;;;;5108361;28;20060;-72
2023/12/04 14:24:45;;;;;;;2.30;1.17;;;;;;;;;;5111607;28;20064;-73
2023/12/04 14:27:12;;;;;;;3.38;1.52;;;;;;;;;;5112494;28;20054;-74
2023/12/04 14:29:40;;;;;;;1.50;0.88;;;;;;;;;;5112473;28;20044;-73
2023/12/04 14:32:06;;;;;;;2.45;1.20;;;;;;;;;;5111870;28;20051;-72
2023/12/04 14:34:33;;;;;;;3.17;1.20;;;;;;;;;;5112305;28;20051;-72
2023/12/04 14:37:00;;;;;;;4.30;1.50;;;;;;;;;;5112313;28;20071;-71
2023/12/04 14:39:27;;;;;;;3.80;1.42;;;;;;;;;;5111816;28;20048;-73
2023/12/04 14:41:54;;;;;;;3.70;1.40;;;;;;;;;;5111883;28;20039;-71
2023/12/04 14:44:20;;;;;;;2.65;1.20;;;;;;;;;;5111931;28;20461;-74
2023/12/04 14:46:47;;;;;;;4.25;1.60;;;;;;;;;;5111841;28;20059;-72
2023/12/04 14:49:14;;;;;;;4.15;1.55;;;;;;;;;;5111960;28;20136;-71
2023/12/04 14:51:41;;;;;;;3.85;1.85;;;;;;;;;;5111407;28;20079;-71
2023/12/04 15:01:08;;;;;;;3.50;1.20;;;;;;;;;;5073122;28;20047;-71